Darstellungsparameter: Aktuell verwendete Einstellungen:
Skalierung der Graphiken ... ?
xyx+y,   Skalierungsfaktor:      Skalierung: Modus: x, Faktor: 1
Darstellungszeitraum ... ?
Vom - - bis: - -   Zeitraum: 31.03.2021 - 31.03.2021
Min/Max/Avg-Anzeige ... ?
Zeige MMA aktuell
Zeige MMA Monat
Zeige MMA alles
Zeige --A aktuell
Zeige --A Monat
Zeige --A alles
Keine MMA-Anzeige
MMA:
Average (ber die Originaldaten)
MMA-Basis: 31.03.2021 - 31.03.2021
Quicknavigation für Darstellung... ?
Tage:      1T, 2T, 3T, 5T -1T -2T -3T -5T +1T +2T +3T +5T
Wochen: 1W, 2W, 3W -1W -2W -3W +1W +2W +3W
Monate: 1M, 3M, 6M -1M -3M -6M +1M +3M +6M
Jahre:    1J, 3J, 5J, 10J -1J -3J -5J -10J +1J +3J +5J +10J
Nutze für die Darstellung ... ?
Originaldaten oder Mittelwerte auf ...
Stundenbasis Tagesbasis Wochenbasis
Monatsbasis Jahresbasis      Datenbasis: Original-Daten
Darstellen als:
Statistik (Auto) Statistik J:M      Darstellung:
Zur Graphik,    zurück zur Übersicht aller Sensoren.
 
Tabellarische Datenbersicht: ?
 
Sensor: Nr:Datum:Temp:Abs-Feuchte:Windchill:Wind:
Aussen-T/F 1 31-03-2021 00:00:00 8.3 C 6.07 g/m*3 8.3 C 0 km/h
2 31-03-2021 00:05:00 8.3 C 6.15 g/m*3 8.3 C 1.6 km/h
3 31-03-2021 00:10:00 8.3 C 6.15 g/m*3 8.3 C 0 km/h
4 31-03-2021 00:15:00 8.3 C 6.15 g/m*3 8.3 C 0 km/h
5 31-03-2021 00:20:00 8.3 C 6.07 g/m*3 8.3 C 0 km/h
6 31-03-2021 00:25:00 8.3 C 6.07 g/m*3 8.3 C 0 km/h
7 31-03-2021 00:30:00 8.2 C 6.03 g/m*3 8.2 C 0 km/h
8 31-03-2021 00:35:00 8.1 C 6.07 g/m*3 8.1 C 0 km/h
9 31-03-2021 00:40:00 8.1 C 6.07 g/m*3 8.1 C 0 km/h
10 31-03-2021 00:45:00 8 C 6.04 g/m*3 8 C 0 km/h
11 31-03-2021 00:50:00 7.9 C 6.08 g/m*3 7.9 C 0 km/h
12 31-03-2021 00:55:00 7.8 C 6.04 g/m*3 7.8 C 0 km/h
13 31-03-2021 01:00:00 7.7 C 6 g/m*3 7.7 C 0 km/h
14 31-03-2021 01:05:00 7.7 C 6.08 g/m*3 7.7 C 0 km/h
15 31-03-2021 01:10:00 7.6 C 6.12 g/m*3 7.6 C 0 km/h
16 31-03-2021 01:15:00 7.5 C 6.08 g/m*3 7.5 C 0 km/h
17 31-03-2021 01:20:00 7.4 C 6.04 g/m*3 7.4 C 0 km/h
18 31-03-2021 01:25:00 7.3 C 6 g/m*3 7.3 C 0 km/h
19 31-03-2021 01:30:00 7.2 C 5.97 g/m*3 7.2 C 0 km/h
20 31-03-2021 01:35:00 7.2 C 6.04 g/m*3 7.2 C 0 km/h
21 31-03-2021 01:40:00 7.1 C 6.01 g/m*3 7.1 C 0 km/h
22 31-03-2021 01:45:00 6.9 C 6 g/m*3 6.9 C 0 km/h
23 31-03-2021 01:50:00 6.9 C 6 g/m*3 6.9 C 0 km/h
24 31-03-2021 01:55:00 6.8 C 5.97 g/m*3 6.8 C 0 km/h
25 31-03-2021 02:00:00 6.8 C 6.04 g/m*3 6.8 C 0 km/h
Sensor: Nr:Datum:Temp:Abs-Feuchte:Windchill:Wind:
Aussen-T/F 26 31-03-2021 02:05:00 6.7 C 6 g/m*3 6.7 C 0 km/h
27 31-03-2021 02:10:00 6.6 C 5.96 g/m*3 6.6 C 0 km/h
28 31-03-2021 02:15:00 6.4 C 5.89 g/m*3 6.4 C 0 km/h
29 31-03-2021 02:20:00 6.4 C 5.96 g/m*3 6.4 C 0 km/h
30 31-03-2021 02:25:00 6.4 C 6.04 g/m*3 6.4 C 0 km/h
31 31-03-2021 02:30:00 6.3 C 6 g/m*3 6.3 C 0 km/h
32 31-03-2021 02:35:00 6.3 C 5.92 g/m*3 6.3 C 0 km/h
33 31-03-2021 02:40:00 6.2 C 5.96 g/m*3 6.2 C 0 km/h
34 31-03-2021 02:45:00 6.1 C 5.92 g/m*3 6.1 C 0 km/h
35 31-03-2021 02:50:00 6 C 5.88 g/m*3 6 C 0 km/h
36 31-03-2021 02:55:00 5.9 C 5.91 g/m*3 5.9 C 0 km/h
37 31-03-2021 03:00:00 5.9 C 5.91 g/m*3 5.9 C 0 km/h
38 31-03-2021 03:05:00 5.8 C 5.87 g/m*3 5.8 C 0 km/h
39 31-03-2021 03:10:00 5.7 C 5.84 g/m*3 5.7 C 0 km/h
40 31-03-2021 03:15:00 5.7 C 5.91 g/m*3 5.7 C 0 km/h
41 31-03-2021 03:20:00 5.7 C 5.91 g/m*3 5.7 C 0 km/h
42 31-03-2021 03:25:00 5.6 C 5.87 g/m*3 5.6 C 0 km/h
43 31-03-2021 03:30:00 5.5 C 5.83 g/m*3 5.5 C 0 km/h
44 31-03-2021 03:35:00 5.3 C 5.75 g/m*3 5.3 C 0 km/h
45 31-03-2021 03:40:00 5.2 C 5.78 g/m*3 5.2 C 0 km/h
46 31-03-2021 03:45:00 5.2 C 5.78 g/m*3 5.2 C 0 km/h
47 31-03-2021 03:50:00 5.2 C 5.85 g/m*3 5.2 C 0 km/h
48 31-03-2021 03:55:00 5.2 C 5.78 g/m*3 5.2 C 0 km/h
49 31-03-2021 04:00:00 5.1 C 5.75 g/m*3 5.1 C 0 km/h
50 31-03-2021 04:05:00 5 C 5.71 g/m*3 5 C 0 km/h
Sensor: Nr:Datum:Temp:Abs-Feuchte:Windchill:Wind:
Aussen-T/F 51 31-03-2021 04:10:00 4.9 C 5.67 g/m*3 4.9 C 0 km/h
52 31-03-2021 04:15:00 4.8 C 5.7 g/m*3 4.8 C 0 km/h
53 31-03-2021 04:20:00 4.8 C 5.7 g/m*3 4.8 C 0 km/h
54 31-03-2021 04:25:00 4.8 C 5.7 g/m*3 4.8 C 0 km/h
55 31-03-2021 04:30:00 4.8 C 5.7 g/m*3 4.8 C 0 km/h
56 31-03-2021 04:35:00 4.7 C 5.66 g/m*3 4.7 C 0 km/h
57 31-03-2021 04:40:00 4.7 C 5.66 g/m*3 4.7 C 0 km/h
58 31-03-2021 04:45:00 4.6 C 5.62 g/m*3 4.6 C 0 km/h
59 31-03-2021 04:50:00 4.5 C 5.59 g/m*3 4.5 C 0 km/h
60 31-03-2021 04:55:00 4.4 C 5.62 g/m*3 4.4 C 0 km/h
61 31-03-2021 05:00:00 4.4 C 5.68 g/m*3 4.4 C 0 km/h
62 31-03-2021 05:05:00 4.3 C 5.58 g/m*3 4.3 C 0 km/h
63 31-03-2021 05:10:00 4.2 C 5.61 g/m*3 4.2 C 0 km/h
64 31-03-2021 05:15:00 4.1 C 5.57 g/m*3 4.1 C 0 km/h
65 31-03-2021 05:20:00 4 C 5.53 g/m*3 4 C 0 km/h
66 31-03-2021 05:25:00 3.9 C 5.49 g/m*3 3.9 C 0 km/h
67 31-03-2021 05:30:00 3.8 C 5.46 g/m*3 3.8 C 0 km/h
68 31-03-2021 05:35:00 3.7 C 5.42 g/m*3 3.7 C 0 km/h
69 31-03-2021 05:40:00 3.7 C 5.48 g/m*3 3.7 C 0 km/h
70 31-03-2021 05:45:00 3.7 C 5.48 g/m*3 3.7 C 0 km/h
71 31-03-2021 05:50:00 3.7 C 5.48 g/m*3 3.7 C 0 km/h
72 31-03-2021 05:55:00 3.7 C 5.48 g/m*3 3.7 C 0 km/h
73 31-03-2021 06:00:00 3.7 C 5.55 g/m*3 3.7 C 0 km/h
74 31-03-2021 06:05:00 3.8 C 5.58 g/m*3 3.8 C 0 km/h
75 31-03-2021 06:10:00 3.8 C 5.58 g/m*3 3.8 C 0 km/h
Sensor: Nr:Datum:Temp:Abs-Feuchte:Windchill:Wind:
Aussen-T/F 76 31-03-2021 06:15:00 3.8 C 5.52 g/m*3 3.8 C 0 km/h
77 31-03-2021 06:20:00 3.8 C 5.52 g/m*3 3.8 C 0 km/h
78 31-03-2021 06:25:00 3.7 C 5.48 g/m*3 3.7 C 0 km/h
79 31-03-2021 06:30:00 3.6 C 5.45 g/m*3 3.6 C 0 km/h
80 31-03-2021 06:35:00 3.4 C 5.37 g/m*3 3.4 C 0 km/h
81 31-03-2021 06:40:00 3.3 C 5.34 g/m*3 3.3 C 0 km/h
82 31-03-2021 06:45:00 3.3 C 5.34 g/m*3 3.3 C 0 km/h
83 31-03-2021 06:50:00 3.2 C 5.36 g/m*3 3.2 C 0 km/h
84 31-03-2021 06:55:00 3.2 C 5.42 g/m*3 3.2 C 0 km/h
85 31-03-2021 07:00:00 3.2 C 5.42 g/m*3 3.2 C 0 km/h
86 31-03-2021 07:05:00 3.3 C 5.46 g/m*3 3.3 C 0 km/h
87 31-03-2021 07:10:00 3.3 C 5.46 g/m*3 3.3 C 0 km/h
88 31-03-2021 07:15:00 3.2 C 5.42 g/m*3 3.2 C 0 km/h
89 31-03-2021 07:20:00 3.1 C 5.39 g/m*3 3.1 C 0 km/h
90 31-03-2021 07:25:00 3.1 C 5.39 g/m*3 3.1 C 0 km/h
91 31-03-2021 07:30:00 3 C 5.35 g/m*3 3 C 0 km/h
92 31-03-2021 07:35:00 3.1 C 5.45 g/m*3 3.1 C 0 km/h
93 31-03-2021 07:40:00 3.2 C 5.48 g/m*3 3.2 C 0 km/h
94 31-03-2021 07:45:00 3.3 C 5.52 g/m*3 3.3 C 0 km/h
95 31-03-2021 07:50:00 3.4 C 5.56 g/m*3 3.4 C 0 km/h
96 31-03-2021 07:55:00 3.4 C 5.56 g/m*3 3.4 C 0 km/h
97 31-03-2021 08:00:00 3.4 C 5.56 g/m*3 3.4 C 0 km/h
98 31-03-2021 08:05:00 3.4 C 5.56 g/m*3 3.4 C 0 km/h
99 31-03-2021 08:10:00 3.5 C 5.6 g/m*3 3.5 C 1.6 km/h
100 31-03-2021 08:15:00 3.7 C 5.73 g/m*3 3.7 C 0 km/h
Sensor: Nr:Datum:Temp:Abs-Feuchte:Windchill:Wind:
Aussen-T/F 101 31-03-2021 08:20:00 3.7 C 5.67 g/m*3 3.7 C 0 km/h
102 31-03-2021 08:25:00 3.7 C 5.67 g/m*3 3.7 C 0 km/h
103 31-03-2021 08:30:00 3.8 C 5.71 g/m*3 3.8 C 0 km/h
104 31-03-2021 08:35:00 3.9 C 5.75 g/m*3 3.9 C 0 km/h
105 31-03-2021 08:40:00 3.9 C 5.75 g/m*3 3.9 C 0 km/h
106 31-03-2021 08:45:00 4 C 5.79 g/m*3 4 C 0 km/h
107 31-03-2021 08:50:00 4.1 C 5.82 g/m*3 4.1 C 0 km/h
108 31-03-2021 08:55:00 4.2 C 5.86 g/m*3 4.2 C 0 km/h
109 31-03-2021 09:00:00 4.2 C 5.86 g/m*3 4.2 C 0 km/h
110 31-03-2021 09:05:00 4.3 C 5.9 g/m*3 4.3 C 0 km/h
111 31-03-2021 09:10:00 4.4 C 5.94 g/m*3 4.4 C 0 km/h
112 31-03-2021 09:15:00 4.5 C 5.98 g/m*3 4.5 C 0 km/h
113 31-03-2021 09:20:00 4.6 C 6.02 g/m*3 4.6 C 0 km/h
114 31-03-2021 09:25:00 4.8 C 6.1 g/m*3 4.8 C 0 km/h
115 31-03-2021 09:30:00 4.9 C 6.14 g/m*3 4.9 C 0 km/h
116 31-03-2021 09:35:00 5.1 C 6.22 g/m*3 5.1 C 0 km/h
117 31-03-2021 09:40:00 5.3 C 6.24 g/m*3 5.3 C 0 km/h
118 31-03-2021 09:45:00 5.4 C 6.28 g/m*3 5.4 C 0 km/h
119 31-03-2021 09:50:00 5.5 C 6.32 g/m*3 5.5 C 0 km/h
120 31-03-2021 09:55:00 5.7 C 6.33 g/m*3 5.7 C 0 km/h
121 31-03-2021 10:00:00 5.8 C 6.38 g/m*3 5.8 C 0 km/h
122 31-03-2021 10:05:00 6 C 6.46 g/m*3 6 C 0 km/h
123 31-03-2021 10:10:00 6.2 C 6.55 g/m*3 6.2 C 0 km/h
124 31-03-2021 10:15:00 6.4 C 6.63 g/m*3 6.4 C 0 km/h
125 31-03-2021 10:20:00 6.6 C 6.64 g/m*3 6.6 C 0 km/h
Sensor: Nr:Datum:Temp:Abs-Feuchte:Windchill:Wind:
Aussen-T/F 126 31-03-2021 10:25:00 6.9 C 6.77 g/m*3 6.9 C 0 km/h
127 31-03-2021 10:30:00 7.1 C 6.79 g/m*3 7.1 C 0 km/h
128 31-03-2021 10:35:00 7.3 C 6.87 g/m*3 7.3 C 0 km/h
129 31-03-2021 10:40:00 7.7 C 6.97 g/m*3 7.7 C 0 km/h
130 31-03-2021 10:45:00 8.1 C 6.99 g/m*3 8.1 C 0 km/h
131 31-03-2021 10:50:00 8.6 C 7.13 g/m*3 8.6 C 0 km/h
132 31-03-2021 10:55:00 9.1 C 7.28 g/m*3 9.1 C 0 km/h
133 31-03-2021 11:00:00 9.6 C 7.42 g/m*3 9.6 C 0 km/h
134 31-03-2021 11:05:00 10.1 C 7.47 g/m*3 10.1 C 0 km/h
135 31-03-2021 11:10:00 10.4 C 7.42 g/m*3 10.4 C 1.6 km/h
136 31-03-2021 11:15:00 10.8 C 7.51 g/m*3 10.8 C 0 km/h
137 31-03-2021 11:20:00 11.1 C 7.55 g/m*3 11.1 C 0 km/h
138 31-03-2021 11:25:00 11.4 C 7.6 g/m*3 11.4 C 0 km/h
139 31-03-2021 11:30:00 11.8 C 7.58 g/m*3 11.8 C 0 km/h
140 31-03-2021 11:35:00 12.2 C 7.88 g/m*3 12.2 C 0 km/h
141 31-03-2021 11:40:00 12.6 C 7.74 g/m*3 12.6 C 1.6 km/h
142 31-03-2021 11:45:00 12.9 C 7.89 g/m*3 12.9 C 0 km/h
143 31-03-2021 11:50:00 13.3 C 7.86 g/m*3 13.3 C 0 km/h
144 31-03-2021 11:55:00 13.8 C 7.63 g/m*3 13.8 C 1.6 km/h
145 31-03-2021 12:00:00 14.3 C 7.74 g/m*3 14.3 C 0 km/h
146 31-03-2021 12:05:00 14.6 C 7.88 g/m*3 14.6 C 0 km/h
147 31-03-2021 12:10:00 14.9 C 7.9 g/m*3 14.9 C 0 km/h
148 31-03-2021 12:15:00 15.3 C 8.1 g/m*3 15.3 C 0 km/h
149 31-03-2021 12:20:00 15.6 C 7.98 g/m*3 15.6 C 0 km/h
150 31-03-2021 12:25:00 15.9 C 8.13 g/m*3 15.9 C 1.6 km/h
Sensor: Nr:Datum:Temp:Abs-Feuchte:Windchill:Wind:
Aussen-T/F 151 31-03-2021 12:30:00 16.4 C 7.96 g/m*3 16.4 C 1.6 km/h
152 31-03-2021 12:35:00 16.9 C 7.91 g/m*3 16.9 C 0 km/h
153 31-03-2021 12:40:00 17.5 C 7.45 g/m*3 17.5 C 0 km/h
154 31-03-2021 12:45:00 18.1 C 8.03 g/m*3 18.1 C 1.6 km/h
155 31-03-2021 12:50:00 18.4 C 7.55 g/m*3 18.4 C 1.6 km/h
156 31-03-2021 12:55:00 18.8 C 7.57 g/m*3 18.8 C 0 km/h
157 31-03-2021 13:00:00 19.3 C 7.63 g/m*3 19.3 C 1.6 km/h
158 31-03-2021 13:05:00 19.8 C 7.69 g/m*3 19.8 C 1.6 km/h
159 31-03-2021 13:10:00 20.2 C 7.52 g/m*3 20.2 C 0 km/h
160 31-03-2021 13:15:00 20.6 C 7.34 g/m*3 20.6 C 1.6 km/h
161 31-03-2021 13:20:00 20.8 C 7.24 g/m*3 20.8 C 1.6 km/h
162 31-03-2021 13:25:00 21.2 C 7.41 g/m*3 21.2 C 1.6 km/h
163 31-03-2021 13:30:00 21.4 C 7.5 g/m*3 21.4 C 1.6 km/h
164 31-03-2021 13:35:00 21.8 C 7.67 g/m*3 21.8 C 3.2 km/h
165 31-03-2021 13:40:00 22.1 C 7.61 g/m*3 22.1 C 4.8 km/h
166 31-03-2021 13:45:00 22.2 C 7.46 g/m*3 22.2 C 3.2 km/h
167 31-03-2021 13:50:00 22.3 C 7.31 g/m*3 22.3 C 1.6 km/h
168 31-03-2021 13:55:00 22.5 C 7.39 g/m*3 22.5 C 1.6 km/h
169 31-03-2021 14:00:00 22.6 C 7.23 g/m*3 22.6 C 1.6 km/h
170 31-03-2021 14:05:00 22.8 C 7.32 g/m*3 22.8 C 3.2 km/h
171 31-03-2021 14:10:00 23.1 C 7.23 g/m*3 23.1 C 4.8 km/h
172 31-03-2021 14:15:00 23.3 C 7.32 g/m*3 23.3 C 4.8 km/h
173 31-03-2021 14:20:00 23.6 C 7.23 g/m*3 23.6 C 8.1 km/h
174 31-03-2021 14:25:00 23.8 C 7.1 g/m*3 23.8 C 8.1 km/h
175 31-03-2021 14:30:00 24.1 C 7.66 g/m*3 24.1 C 4.8 km/h
Sensor: Nr:Datum:Temp:Abs-Feuchte:Windchill:Wind:
Aussen-T/F 176 31-03-2021 14:35:00 24.3 C 7.75 g/m*3 24.3 C 8.1 km/h
177 31-03-2021 14:40:00 24.6 C 7.88 g/m*3 24.6 C 4.8 km/h
178 31-03-2021 14:45:00 24.8 C 7.51 g/m*3 24.8 C 6.4 km/h
179 31-03-2021 14:50:00 24.9 C 7.55 g/m*3 24.9 C 4.8 km/h
180 31-03-2021 14:55:00 25.2 C 7.45 g/m*3 25.2 C 8.1 km/h
181 31-03-2021 15:00:00 25.4 C 7.3 g/m*3 25.4 C 9.7 km/h
182 31-03-2021 15:05:00 25.4 C 7.3 g/m*3 25.4 C 11.3 km/h
183 31-03-2021 15:10:00 25.4 C 7.06 g/m*3 25.4 C 9.7 km/h
184 31-03-2021 15:15:00 25.4 C 7.53 g/m*3 25.4 C 11.3 km/h
185 31-03-2021 15:20:00 25.5 C 7.34 g/m*3 25.5 C 9.7 km/h
186 31-03-2021 15:25:00 25.4 C 7.06 g/m*3 25.4 C 11.3 km/h
187 31-03-2021 15:30:00 25.5 C 7.1 g/m*3 25.5 C 8.1 km/h
188 31-03-2021 15:35:00 25.6 C 7.38 g/m*3 25.6 C 8.1 km/h
189 31-03-2021 15:40:00 25.7 C 6.94 g/m*3 25.7 C 9.7 km/h
190 31-03-2021 15:45:00 25.7 C 6.94 g/m*3 25.7 C 9.7 km/h
191 31-03-2021 15:50:00 25.6 C 6.9 g/m*3 25.6 C 9.7 km/h
192 31-03-2021 15:55:00 25.6 C 6.67 g/m*3 25.6 C 12.9 km/h
193 31-03-2021 16:00:00 25.7 C 6.46 g/m*3 25.7 C 12.9 km/h
194 31-03-2021 16:05:00 25.7 C 6.7 g/m*3 25.7 C 11.3 km/h
195 31-03-2021 16:10:00 25.8 C 6.5 g/m*3 25.8 C 9.7 km/h
196 31-03-2021 16:15:00 25.8 C 6.98 g/m*3 25.8 C 14.5 km/h
197 31-03-2021 16:20:00 25.8 C 6.74 g/m*3 25.8 C 12.9 km/h
198 31-03-2021 16:25:00 26 C 6.82 g/m*3 26 C 8.1 km/h
199 31-03-2021 16:30:00 26.3 C 6.44 g/m*3 26.3 C 17.7 km/h
200 31-03-2021 16:35:00 26.3 C 6.68 g/m*3 26.3 C 17.7 km/h
Sensor: Nr:Datum:Temp:Abs-Feuchte:Windchill:Wind:
Aussen-T/F 201 31-03-2021 16:40:00 26.4 C 6.72 g/m*3 26.4 C 14.5 km/h
202 31-03-2021 16:45:00 26.7 C 6.33 g/m*3 26.7 C 16.1 km/h
203 31-03-2021 16:50:00 26.7 C 6.07 g/m*3 26.7 C 11.3 km/h
204 31-03-2021 16:55:00 26.8 C 5.85 g/m*3 26.8 C 17.7 km/h
205 31-03-2021 17:00:00 26.9 C 5.89 g/m*3 26.9 C 11.3 km/h
206 31-03-2021 17:05:00 27.1 C 6.21 g/m*3 27.1 C 11.3 km/h
207 31-03-2021 17:10:00 27.3 C 6.28 g/m*3 27.3 C 12.9 km/h
208 31-03-2021 17:15:00 27.3 C 6.28 g/m*3 27.3 C 9.7 km/h
209 31-03-2021 17:20:00 27.4 C 6.31 g/m*3 27.4 C 8.1 km/h
210 31-03-2021 17:25:00 27.5 C 6.61 g/m*3 27.5 C 8.1 km/h
211 31-03-2021 17:30:00 27.4 C 6.05 g/m*3 27.4 C 11.3 km/h
212 31-03-2021 17:35:00 27.4 C 6.31 g/m*3 27.4 C 9.7 km/h
213 31-03-2021 17:40:00 27.4 C 6.05 g/m*3 27.4 C 9.7 km/h
214 31-03-2021 17:45:00 27.4 C 6.05 g/m*3 27.4 C 11.3 km/h
215 31-03-2021 17:50:00 27.4 C 6.05 g/m*3 27.4 C 11.3 km/h
216 31-03-2021 17:55:00 27.4 C 6.05 g/m*3 27.4 C 9.7 km/h
217 31-03-2021 18:00:00 27.3 C 6.54 g/m*3 27.3 C 11.3 km/h
218 31-03-2021 18:05:00 27.3 C 6.8 g/m*3 27.3 C 9.7 km/h
219 31-03-2021 18:10:00 27.4 C 6.58 g/m*3 27.4 C 8.1 km/h
220 31-03-2021 18:15:00 27.3 C 6.8 g/m*3 27.3 C 9.7 km/h
221 31-03-2021 18:20:00 27.3 C 6.54 g/m*3 27.3 C 8.1 km/h
222 31-03-2021 18:25:00 27.1 C 6.99 g/m*3 27.1 C 8.1 km/h
223 31-03-2021 18:30:00 27.2 C 7.29 g/m*3 27.2 C 4.8 km/h
224 31-03-2021 18:35:00 27.2 C 6.51 g/m*3 27.2 C 9.7 km/h
225 31-03-2021 18:40:00 27 C 6.69 g/m*3 27 C 8.1 km/h
Sensor: Nr:Datum:Temp:Abs-Feuchte:Windchill:Wind:
Aussen-T/F 226 31-03-2021 18:45:00 26.8 C 6.87 g/m*3 26.8 C 4.8 km/h
227 31-03-2021 18:50:00 26.8 C 7.38 g/m*3 26.8 C 3.2 km/h
228 31-03-2021 18:55:00 26.8 C 7.13 g/m*3 26.8 C 1.6 km/h
229 31-03-2021 19:00:00 26.7 C 7.09 g/m*3 26.7 C 8.1 km/h
230 31-03-2021 19:05:00 26.3 C 7.18 g/m*3 26.3 C 8.1 km/h
231 31-03-2021 19:10:00 25.9 C 7.02 g/m*3 25.9 C 6.4 km/h
232 31-03-2021 19:15:00 25.4 C 7.53 g/m*3 25.4 C 4.8 km/h
233 31-03-2021 19:20:00 25 C 7.37 g/m*3 25 C 4.8 km/h
234 31-03-2021 19:25:00 24.7 C 7.7 g/m*3 24.7 C 4.8 km/h
235 31-03-2021 19:30:00 24.2 C 7.7 g/m*3 24.2 C 4.8 km/h
236 31-03-2021 19:35:00 23.7 C 7.7 g/m*3 23.7 C 6.4 km/h
237 31-03-2021 19:40:00 23.2 C 8.11 g/m*3 23.2 C 6.4 km/h
238 31-03-2021 19:45:00 22.5 C 7.79 g/m*3 22.5 C 6.4 km/h
239 31-03-2021 19:50:00 21.8 C 7.67 g/m*3 21.8 C 6.4 km/h
240 31-03-2021 19:55:00 21.1 C 7.74 g/m*3 21.1 C 6.4 km/h
241 31-03-2021 20:00:00 20.4 C 7.96 g/m*3 20.4 C 6.4 km/h
242 31-03-2021 20:05:00 19.8 C 7.86 g/m*3 19.8 C 6.4 km/h
243 31-03-2021 20:10:00 19.3 C 7.8 g/m*3 19.3 C 6.4 km/h
244 31-03-2021 20:15:00 18.9 C 7.94 g/m*3 18.9 C 6.4 km/h
245 31-03-2021 20:20:00 18.5 C 7.91 g/m*3 18.5 C 6.4 km/h
246 31-03-2021 20:25:00 18.2 C 7.77 g/m*3 18.2 C 6.4 km/h
247 31-03-2021 20:30:00 17.8 C 7.74 g/m*3 17.8 C 6.4 km/h
248 31-03-2021 20:35:00 17.6 C 7.8 g/m*3 17.6 C 6.4 km/h
249 31-03-2021 20:40:00 17.4 C 7.71 g/m*3 17.4 C 6.4 km/h
250 31-03-2021 20:45:00 17.3 C 7.81 g/m*3 17.3 C 6.4 km/h
Sensor: Nr:Datum:Temp:Abs-Feuchte:Windchill:Wind:
Aussen-T/F 251 31-03-2021 20:50:00 17.2 C 7.91 g/m*3 17.2 C 4.8 km/h
252 31-03-2021 20:55:00 17 C 7.81 g/m*3 17 C 4.8 km/h
253 31-03-2021 21:00:00 16.8 C 7.72 g/m*3 16.8 C 4.8 km/h
254 31-03-2021 21:05:00 16.6 C 7.77 g/m*3 16.6 C 4.8 km/h
255 31-03-2021 21:10:00 16.4 C 7.82 g/m*3 16.4 C 3.2 km/h
256 31-03-2021 21:15:00 16.2 C 7.86 g/m*3 16.2 C 3.2 km/h
257 31-03-2021 21:20:00 16 C 7.9 g/m*3 16 C 1.6 km/h
258 31-03-2021 21:25:00 15.9 C 7.99 g/m*3 15.9 C 1.6 km/h
259 31-03-2021 21:30:00 15.7 C 7.89 g/m*3 15.7 C 1.6 km/h
260 31-03-2021 21:35:00 15.6 C 7.98 g/m*3 15.6 C 0 km/h
261 31-03-2021 21:40:00 15.2 C 7.92 g/m*3 15.2 C 0 km/h
262 31-03-2021 21:45:00 14.8 C 7.85 g/m*3 14.8 C 0 km/h
263 31-03-2021 21:50:00 14.5 C 7.96 g/m*3 14.5 C 0 km/h
264 31-03-2021 21:55:00 14.2 C 7.82 g/m*3 14.2 C 0 km/h
265 31-03-2021 22:00:00 14 C 7.84 g/m*3 14 C 0 km/h
266 31-03-2021 22:05:00 13.8 C 7.74 g/m*3 13.8 C 0 km/h
267 31-03-2021 22:10:00 13.7 C 7.93 g/m*3 13.7 C 0 km/h
268 31-03-2021 22:15:00 13.6 C 7.77 g/m*3 13.6 C 1.6 km/h
269 31-03-2021 22:20:00 13.4 C 7.67 g/m*3 13.4 C 1.6 km/h
270 31-03-2021 22:25:00 13.4 C 7.56 g/m*3 13.4 C 6.4 km/h
271 31-03-2021 22:30:00 13.6 C 7.65 g/m*3 13.6 C 4.8 km/h
272 31-03-2021 22:35:00 13.6 C 7.65 g/m*3 13.6 C 4.8 km/h
273 31-03-2021 22:40:00 13.6 C 7.65 g/m*3 13.6 C 8.1 km/h
274 31-03-2021 22:45:00 13.6 C 7.77 g/m*3 13.6 C 9.7 km/h
275 31-03-2021 22:50:00 13.7 C 7.93 g/m*3 13.7 C 4.8 km/h
Sensor: Nr:Datum:Temp:Abs-Feuchte:Windchill:Wind:
Aussen-T/F 276 31-03-2021 22:55:00 13.7 C 7.82 g/m*3 13.7 C 4.8 km/h
277 31-03-2021 23:00:00 13.5 C 7.72 g/m*3 13.5 C 1.6 km/h
278 31-03-2021 23:05:00 13.3 C 7.74 g/m*3 13.3 C 0 km/h
279 31-03-2021 23:10:00 13.1 C 7.65 g/m*3 13.1 C 0 km/h
280 31-03-2021 23:15:00 12.9 C 7.55 g/m*3 12.9 C 0 km/h
281 31-03-2021 23:20:00 12.7 C 7.57 g/m*3 12.7 C 3.2 km/h
282 31-03-2021 23:25:00 12.6 C 7.52 g/m*3 12.6 C 1.6 km/h
283 31-03-2021 23:30:00 12.5 C 7.48 g/m*3 12.5 C 1.6 km/h
284 31-03-2021 23:35:00 12.4 C 7.43 g/m*3 12.4 C 1.6 km/h
285 31-03-2021 23:40:00 12.3 C 7.38 g/m*3 12.3 C 0 km/h
286 31-03-2021 23:45:00 12.1 C 7.29 g/m*3 12.1 C 0 km/h
287 31-03-2021 23:50:00 12 C 7.35 g/m*3 12 C 0 km/h
288 31-03-2021 23:55:00 11.8 C 7.37 g/m*3 11.8 C 0 km/h

Legende:
   Min
   Max


Maximal/Minimal-Werte vom 31.03.2021 - 31.03.2021

Sensor Min Max Avg
Temp
(Aussen-T/F)
3 °C
31-03-2021  07:30:00
27.5 °C
31-03-2021  17:25:00
13.43 °C
Abs-Feuchte
(Aussen-T/F)
5.34 g/m*3
31-03-2021  06:40:00
8.13 g/m*3
31-03-2021  12:25:00
6.65 g/m*3
Windchill
(Aussen-T/F)
3 C
31-03-2021  07:30:00
27.5 C
31-03-2021  17:25:00
13.38 C

Die Daten stammen von einer Davis Vantage Pro 2 Wetter-Station und werden unter Linux mit der Software wview2wettercgi und aufbereitet. Alle Angaben erfolgen ohne Gewähr für ihre Vollständigkeit oder Richtigkeit.
Kontakt: Rainer Krienke krienke@uni-koblenz.de . Meine Webseiten an der Uni Koblenz oder privat.
Version: $Revision: 0.78 $